Airfield :
LOGIN :

Register | Disclaimer

   EN    FR    IT 

 










Legend :    VFR   Marginal VFR   IFR   Intensive IFR   Very Intensive IFR
Visi :
Ceiling :
>= 8 km
>= 3000ft
5 to 8 km
1000 to 3000 ft
1500m to 5 km
500 to 1000 ft
800 to 1500m
200 to 500 ft
< 800m
< 200 ft
Symbols :   Thunderstorms  Fog  Heavy snow  Heavy precipitations  Wind > 20 kt
SIGMETs :     Misc.  Thunderstorms  Icing  Turbulence  Mountain Waves  Volcanic Ashes






- Airport Elevation : 147 ft
- IATA code : DUS


EDDL - Düsseldorf Int.

CURRENT METAR :
  • 100320Z 17013KT CAVOK 20/09 Q1000 TEMPO 20020G35KT

EXPIRED METARs :
  • 100250Z 18015KT CAVOK 21/09 Q1000 TEMPO 20020G35KT
  • 100220Z 19016KT CAVOK 21/09 Q1000 TEMPO 20020G35KT
  • 100150Z 18016KT CAVOK 22/09 Q1000 NOSIG
  • 100120Z 15010KT 130V210 CAVOK 21/10 Q1000 NOSIG
  • 100050Z 16010KT 9999 -SHRA FEW040TCU 20/10 Q1001 NOSIG

TAF TAF EDDL
Valid from the 10 at 00:00 until the 11 at 06:00 UTC


092300Z 1000/1106 16011KT CAVOK
PROB40
TEMPO 1003/1008 18015G25KT
BECMG 1008/1010 22015G25KT
BECMG 1012/1015 22011KT
BECMG 1017/1020 16005KT
BECMG 1022/1102 VRB03KT
PROB30
TEMPO 1100/1103 RA



MET'MAP, your aeronautical weather chart ! - Copyright ORBIFLY December 2007 - Disclaimer

ORBIFLY MET'MAP TEAM :

Programming & Development : Alexandra Zaïnal
Concept & original design : Baudouin d'Aumeries
Assistance for programming : Marc-Olivier Méhu
Technical & hardware support : Manuel Goepfert

Contact : metmap@orbifly.com




SOURCES & CREDITS :

   NOAA